createdAt,value
2017-11-29T00:01:30.413Z,32.63
2017-11-29T00:03:57.981Z,27.02
2017-11-29T00:06:25.530Z,27.08
2017-11-29T00:08:53.102Z,31.52
2017-11-29T00:11:20.665Z,26.80
2017-11-29T00:13:48.227Z,31.70
2017-11-29T00:16:15.764Z,21.77
2017-11-29T00:18:44.076Z,25.42
2017-11-29T00:21:11.626Z,23.83
2017-11-29T00:23:39.153Z,32.33
2017-11-29T00:26:07.506Z,30.95
2017-11-29T00:28:35.041Z,22.25
2017-11-29T00:31:02.609Z,34.67
2017-11-29T00:33:30.185Z,24.80
2017-11-29T00:35:57.715Z,25.52
2017-11-29T00:38:25.320Z,36.83
2017-11-29T00:40:52.851Z,31.55
2017-11-29T00:43:20.416Z,38.38
2017-11-29T00:45:47.961Z,25.08
2017-11-29T00:48:15.522Z,21.60
2017-11-29T00:50:43.056Z,28.55
2017-11-29T00:53:11.402Z,30.37
2017-11-29T00:55:38.955Z,34.30
2017-11-29T00:58:06.507Z,34.65
2017-11-29T01:00:34.060Z,35.05
2017-11-29T01:03:01.598Z,37.38
2017-11-29T01:05:29.916Z,31.98
2017-11-29T01:07:57.461Z,36.38
2017-11-29T01:10:25.042Z,40.10
2017-11-29T01:12:52.574Z,28.85
2017-11-29T01:15:20.111Z,42.33
2017-11-29T01:17:48.453Z,31.05
2017-11-29T01:20:15.992Z,34.25
2017-11-29T01:22:43.569Z,52.62
2017-11-29T01:25:11.123Z,43.85
2017-11-29T01:27:38.685Z,50.15
2017-11-29T01:30:06.220Z,45.53
2017-11-29T01:32:33.761Z,50.90
2017-11-29T01:35:02.087Z,48.13
2017-11-29T01:37:29.646Z,41.03
2017-11-29T01:39:57.200Z,45.80
2017-11-29T01:42:24.737Z,41.88
2017-11-29T01:44:53.086Z,52.50
2017-11-29T01:47:20.652Z,43.47
2017-11-29T01:49:48.959Z,48.65
2017-11-29T01:52:16.511Z,49.40
2017-11-29T01:54:44.838Z,53.50
2017-11-29T01:57:12.408Z,47.72
2017-11-29T01:59:39.957Z,40.28
2017-11-29T02:02:07.536Z,56.15
2017-11-29T02:04:35.073Z,42.97
2017-11-29T02:07:02.603Z,48.28
2017-11-29T02:09:30.940Z,52.30
2017-11-29T02:11:59.269Z,41.08
2017-11-29T02:14:26.846Z,40.75
2017-11-29T02:16:54.417Z,39.75
2017-11-29T02:19:21.992Z,39.85
2017-11-29T02:21:49.543Z,45.00
2017-11-29T02:24:17.087Z,42.83
2017-11-29T02:26:44.644Z,48.45
2017-11-29T02:29:12.190Z,43.47
2017-11-29T02:31:40.533Z,38.75
2017-11-29T02:34:08.084Z,47.47
2017-11-29T02:36:35.655Z,41.60
2017-11-29T02:39:03.209Z,44.00
2017-11-29T02:41:42.667Z,48.70
2017-11-29T02:44:10.208Z,48.95
2017-11-29T02:46:37.740Z,43.42
2017-11-29T02:49:05.353Z,58.00
2017-11-29T02:51:32.910Z,62.03
2017-11-29T02:54:00.477Z,66.62
2017-11-29T02:56:28.063Z,72.82
2017-11-29T02:58:56.389Z,65.65
2017-11-29T03:01:23.947Z,57.00
2017-11-29T03:03:51.487Z,60.38
2017-11-29T03:06:19.072Z,64.95
2017-11-29T03:08:46.620Z,63.05
2017-11-29T03:11:14.175Z,66.62
2017-11-29T03:13:41.747Z,57.33
2017-11-29T03:16:09.324Z,63.80
2017-11-29T03:18:36.911Z,64.80
2017-11-29T03:21:04.457Z,57.53
2017-11-29T03:23:32.002Z,57.40
2017-11-29T03:25:59.559Z,66.07
2017-11-29T03:28:27.110Z,57.45
2017-11-29T03:30:54.703Z,66.80
2017-11-29T03:33:22.238Z,59.20
2017-11-29T03:35:49.767Z,59.35
2017-11-29T03:38:18.087Z,47.80
2017-11-29T03:40:45.641Z,55.92
2017-11-29T03:43:13.223Z,51.55
2017-11-29T03:45:40.752Z,54.97
2017-11-29T03:48:08.295Z,47.75
2017-11-29T03:50:36.612Z,42.70
2017-11-29T03:53:04.152Z,55.22
2017-11-29T03:55:31.719Z,43.38
2017-11-29T03:57:59.247Z,59.72
2017-11-29T04:00:26.805Z,49.15
2017-11-29T04:02:54.399Z,52.60
2017-11-29T04:05:21.946Z,53.50
2017-11-29T04:07:50.304Z,52.08
2017-11-29T04:10:17.841Z,50.35
2017-11-29T04:12:45.376Z,43.87
2017-11-29T04:15:12.946Z,57.97
2017-11-29T04:17:40.502Z,42.97
2017-11-29T04:20:08.081Z,51.72
2017-11-29T04:22:35.618Z,48.50
2017-11-29T04:25:03.141Z,47.83
2017-11-29T04:27:30.690Z,55.78
2017-11-29T04:29:58.231Z,50.40
2017-11-29T04:32:25.795Z,46.22
2017-11-29T04:34:53.350Z,52.33
2017-11-29T04:37:20.902Z,42.60
2017-11-29T04:39:48.473Z,54.80
2017-11-29T04:42:16.009Z,42.72
2017-11-29T04:44:43.572Z,38.78
2017-11-29T04:47:11.129Z,42.55
2017-11-29T04:49:38.675Z,43.90
2017-11-29T04:52:07.019Z,58.30
2017-11-29T04:54:34.585Z,57.72
2017-11-29T04:57:02.171Z,47.35
2017-11-29T04:59:30.496Z,55.97
2017-11-29T05:01:58.031Z,50.47
2017-11-29T05:04:25.594Z,48.38
2017-11-29T05:06:53.144Z,55.17
2017-11-29T05:09:21.484Z,61.37
2017-11-29T05:11:49.790Z,53.42
2017-11-29T05:14:18.092Z,48.65
2017-11-29T05:16:45.662Z,46.25
2017-11-29T05:19:13.219Z,58.83
2017-11-29T05:21:40.808Z,53.97
2017-11-29T05:24:08.356Z,53.17
2017-11-29T05:26:35.925Z,46.63
2017-11-29T05:29:03.481Z,52.13
2017-11-29T05:31:31.014Z,49.58
2017-11-29T05:33:59.355Z,44.85
2017-11-29T05:36:26.895Z,49.80
2017-11-29T05:38:54.426Z,61.50
2017-11-29T05:41:21.978Z,50.42
2017-11-29T05:43:50.294Z,78.95
2017-11-29T05:46:17.893Z,56.37
2017-11-29T05:48:45.448Z,67.40
2017-11-29T05:51:12.990Z,56.97
2017-11-29T05:53:40.560Z,56.35
2017-11-29T05:56:08.114Z,68.62
2017-11-29T05:58:35.698Z,57.95
2017-11-29T06:01:03.261Z,54.85
2017-11-29T06:03:30.816Z,48.22
2017-11-29T06:05:58.379Z,55.88
2017-11-29T06:08:25.941Z,60.33
2017-11-29T06:10:53.533Z,51.22
2017-11-29T06:13:21.831Z,62.60
2017-11-29T06:15:49.375Z,52.00
2017-11-29T06:18:17.697Z,63.87
2017-11-29T06:20:45.253Z,70.93
2017-11-29T06:23:12.841Z,64.07
2017-11-29T06:25:40.397Z,56.70
2017-11-29T06:28:07.936Z,66.00
2017-11-29T06:30:35.504Z,55.95
2017-11-29T06:33:03.025Z,50.92
2017-11-29T06:35:31.358Z,57.78
2017-11-29T06:37:58.885Z,62.05
2017-11-29T06:40:26.440Z,54.63
2017-11-29T06:42:54.023Z,54.17
2017-11-29T06:45:21.584Z,51.88
2017-11-29T06:47:49.174Z,57.22
2017-11-29T06:50:16.721Z,59.33
2017-11-29T06:52:44.268Z,56.45
2017-11-29T06:55:11.846Z,65.55
2017-11-29T06:57:39.387Z,63.10
2017-11-29T07:00:06.968Z,62.00
2017-11-29T07:02:34.494Z,59.95
2017-11-29T07:05:02.039Z,61.20
2017-11-29T07:07:30.372Z,66.28
2017-11-29T07:09:57.918Z,58.78
2017-11-29T07:12:25.509Z,57.95
2017-11-29T07:14:53.063Z,58.40
2017-11-29T07:17:20.606Z,52.72
2017-11-29T07:19:48.171Z,65.10
2017-11-29T07:22:15.707Z,62.15
2017-11-29T07:24:43.285Z,59.83
2017-11-29T07:27:10.837Z,58.08
2017-11-29T07:29:38.387Z,70.43
2017-11-29T07:32:05.938Z,52.67
2017-11-29T07:34:34.260Z,67.22
2017-11-29T07:37:02.599Z,53.65
2017-11-29T07:39:30.908Z,58.83
2017-11-29T07:41:58.467Z,49.45
2017-11-29T07:44:26.078Z,57.65
2017-11-29T07:46:53.659Z,61.75
2017-11-29T07:49:22.012Z,61.37
2017-11-29T07:51:49.565Z,64.03
2017-11-29T07:54:17.108Z,59.30
2017-11-29T07:56:44.689Z,52.28
2017-11-29T07:59:12.257Z,54.35
2017-11-29T08:01:40.628Z,51.90
2017-11-29T08:04:08.178Z,58.45
2017-11-29T08:06:35.736Z,52.13
2017-11-29T08:09:03.318Z,53.10
2017-11-29T08:11:30.874Z,53.83
2017-11-29T08:13:58.439Z,60.17
2017-11-29T08:16:26.221Z,68.25
2017-11-29T08:18:53.772Z,62.25
2017-11-29T08:21:21.332Z,55.42
2017-11-29T08:23:48.902Z,53.10
2017-11-29T08:26:16.475Z,58.03
2017-11-29T08:28:44.024Z,54.75
2017-11-29T08:31:11.555Z,61.30
2017-11-29T08:33:39.118Z,64.12
2017-11-29T08:36:06.664Z,60.67
2017-11-29T08:38:34.257Z,57.85
2017-11-29T08:41:01.786Z,57.42
2017-11-29T08:43:29.318Z,58.60
2017-11-29T08:45:57.647Z,49.08
2017-11-29T08:48:25.205Z,53.65
2017-11-29T08:50:52.773Z,55.83
2017-11-29T08:53:20.315Z,66.57
2017-11-29T08:55:47.873Z,52.17
2017-11-29T08:58:15.436Z,63.72
2017-11-29T09:00:42.992Z,65.07
2017-11-29T09:03:10.582Z,56.90
2017-11-29T09:05:38.136Z,48.97
2017-11-29T09:08:05.688Z,55.92
2017-11-29T09:10:33.277Z,54.53
2017-11-29T09:13:00.842Z,61.80
2017-11-29T09:15:28.423Z,58.92
2017-11-29T09:17:55.977Z,64.32
2017-11-29T09:20:23.528Z,46.92
2017-11-29T09:22:51.101Z,48.67
2017-11-29T09:25:18.643Z,56.20
2017-11-29T09:27:46.238Z,50.55
2017-11-29T09:30:13.786Z,65.00
2017-11-29T09:32:41.348Z,53.45
2017-11-29T09:35:08.917Z,53.13
2017-11-29T09:37:36.451Z,54.08
2017-11-29T09:40:04.033Z,61.75
2017-11-29T09:42:31.599Z,49.50
2017-11-29T09:44:59.165Z,50.97
2017-11-29T09:47:26.744Z,47.25
2017-11-29T09:49:55.058Z,53.00
2017-11-29T09:52:22.641Z,59.85
2017-11-29T09:54:50.184Z,53.70
2017-11-29T09:57:17.719Z,59.05
2017-11-29T09:59:46.054Z,52.45
2017-11-29T10:02:13.606Z,52.70
2017-11-29T10:04:41.190Z,46.08
2017-11-29T10:07:08.753Z,49.25
2017-11-29T10:09:36.312Z,45.22
2017-11-29T10:12:03.874Z,55.45
2017-11-29T10:14:31.415Z,48.25
2017-11-29T10:16:59.011Z,43.53
2017-11-29T10:19:27.323Z,46.85
2017-11-29T10:21:54.863Z,45.12
2017-11-29T10:24:23.180Z,59.05
2017-11-29T10:26:50.729Z,48.80
2017-11-29T10:29:18.311Z,42.90
2017-11-29T10:31:45.867Z,39.58
2017-11-29T10:34:13.421Z,45.45
2017-11-29T10:36:40.981Z,46.72
2017-11-29T10:39:08.534Z,42.62
2017-11-29T10:41:36.690Z,49.50
2017-11-29T10:44:05.018Z,46.65
2017-11-29T10:46:32.589Z,46.60
2017-11-29T10:49:00.183Z,38.95
2017-11-29T10:51:28.517Z,53.17
2017-11-29T10:53:56.103Z,45.15
2017-11-29T10:56:23.664Z,49.28
2017-11-29T10:58:51.231Z,58.00
2017-11-29T11:01:19.631Z,44.50
2017-11-29T11:03:47.966Z,44.33
2017-11-29T11:06:15.610Z,45.78
2017-11-29T11:08:43.194Z,40.97
2017-11-29T11:11:10.762Z,37.83
2017-11-29T11:13:39.131Z,42.78
2017-11-29T11:16:06.696Z,44.78
2017-11-29T11:18:34.270Z,54.80
2017-11-29T11:21:01.836Z,45.88
2017-11-29T11:23:29.379Z,37.17
2017-11-29T11:25:56.966Z,36.92
2017-11-29T11:28:24.515Z,35.03
2017-11-29T11:30:52.109Z,40.95
2017-11-29T11:33:19.651Z,39.03
2017-11-29T11:35:47.213Z,38.47
2017-11-29T11:38:14.795Z,30.75
2017-11-29T11:40:43.117Z,32.60
2017-11-29T11:43:10.688Z,36.60
2017-11-29T11:45:38.217Z,37.70
2017-11-29T11:48:06.540Z,38.72
2017-11-29T11:50:34.115Z,31.37
2017-11-29T11:53:01.672Z,32.20
2017-11-29T11:55:29.267Z,28.50
2017-11-29T11:57:57.563Z,27.50
2017-11-29T12:00:25.871Z,45.30
2017-11-29T12:02:53.433Z,28.33
2017-11-29T12:05:21.021Z,28.25
2017-11-29T12:07:48.613Z,28.40
2017-11-29T12:10:16.940Z,40.50
2017-11-29T12:12:44.513Z,31.23
2017-11-29T12:15:12.079Z,37.10
2017-11-29T12:17:39.615Z,28.23
2017-11-29T12:20:07.175Z,26.23
2017-11-29T12:22:34.719Z,28.65
2017-11-29T12:25:02.276Z,29.98
2017-11-29T12:27:29.859Z,24.17
2017-11-29T12:29:57.404Z,25.65
2017-11-29T12:32:25.746Z,22.05
2017-11-29T12:34:53.288Z,28.50
2017-11-29T12:37:20.835Z,34.40
2017-11-29T12:39:48.407Z,27.17
2017-11-29T12:42:15.991Z,34.03
2017-11-29T12:44:43.566Z,23.40
2017-11-29T12:47:11.106Z,33.75
2017-11-29T12:49:50.743Z,32.85
2017-11-29T12:52:18.297Z,32.72
2017-11-29T12:54:45.858Z,32.28
2017-11-29T12:57:13.410Z,30.08
2017-11-29T12:59:40.955Z,23.73
2017-11-29T13:02:08.553Z,27.75
2017-11-29T13:04:36.106Z,35.58
2017-11-29T13:07:03.661Z,28.95
2017-11-29T13:09:31.237Z,25.30
2017-11-29T13:11:58.781Z,33.70
2017-11-29T13:14:26.373Z,32.42
2017-11-29T13:16:53.940Z,47.65
2017-11-29T13:19:21.496Z,30.45
2017-11-29T13:21:49.110Z,31.83
2017-11-29T13:24:16.656Z,35.13
2017-11-29T13:26:44.995Z,26.17
2017-11-29T13:29:12.609Z,33.97
2017-11-29T13:31:40.188Z,30.40
2017-11-29T13:34:07.754Z,32.40
2017-11-29T13:36:35.301Z,25.70
2017-11-29T13:39:02.851Z,27.48
2017-11-29T13:41:30.399Z,30.20
2017-11-29T13:43:58.745Z,30.88
2017-11-29T13:46:26.318Z,38.20
2017-11-29T13:48:53.903Z,27.02
2017-11-29T13:51:22.232Z,35.53
2017-11-29T13:53:49.786Z,32.42
2017-11-29T13:56:17.377Z,19.33
2017-11-29T13:58:44.938Z,28.27
2017-11-29T14:01:12.521Z,25.15
2017-11-29T14:03:40.864Z,27.10
2017-11-29T14:06:08.393Z,30.50
2017-11-29T14:08:35.990Z,20.80
2017-11-29T14:11:04.306Z,25.30
2017-11-29T14:13:31.839Z,28.80
2017-11-29T14:15:59.422Z,25.33
2017-11-29T14:18:27.733Z,21.92
2017-11-29T14:20:55.283Z,20.20
2017-11-29T14:23:23.602Z,30.30
2017-11-29T14:25:51.180Z,25.50
2017-11-29T14:28:18.729Z,26.05
2017-11-29T14:30:46.297Z,29.05
2017-11-29T14:33:13.856Z,22.02
2017-11-29T14:35:41.395Z,20.92
2017-11-29T14:38:08.962Z,19.65
2017-11-29T14:40:36.523Z,26.42
2017-11-29T14:43:04.095Z,25.17
2017-11-29T14:45:31.646Z,27.70
2017-11-29T14:47:59.196Z,25.08
2017-11-29T14:50:26.773Z,27.10
2017-11-29T14:52:54.329Z,23.35
2017-11-29T14:55:21.875Z,27.73
2017-11-29T14:57:50.218Z,27.15
2017-11-29T15:00:17.779Z,21.25
2017-11-29T15:02:45.330Z,19.62
2017-11-29T15:05:12.872Z,27.92
2017-11-29T15:07:40.447Z,32.35
2017-11-29T15:10:07.982Z,26.55
2017-11-29T15:12:35.514Z,23.62
2017-11-29T15:15:03.849Z,26.17
2017-11-29T15:17:31.384Z,22.92
2017-11-29T15:19:58.977Z,32.13
2017-11-29T15:22:26.615Z,36.70
2017-11-29T15:24:54.172Z,21.00
2017-11-29T15:27:22.595Z,26.20
2017-11-29T15:29:50.131Z,38.17
2017-11-29T15:32:17.705Z,26.40
2017-11-29T15:34:45.266Z,27.70
2017-11-29T15:37:13.607Z,25.02
2017-11-29T15:39:41.152Z,26.92
2017-11-29T15:42:09.458Z,28.52
2017-11-29T15:44:37.045Z,35.35
2017-11-29T15:47:04.613Z,25.17
2017-11-29T15:49:32.165Z,33.03
2017-11-29T15:51:59.716Z,32.88
2017-11-29T15:54:27.291Z,29.50
2017-11-29T15:56:54.828Z,25.25
2017-11-29T15:59:22.405Z,27.77
2017-11-29T16:01:49.938Z,36.55
2017-11-29T16:04:17.526Z,36.90
2017-11-29T16:06:45.065Z,32.75
2017-11-29T16:09:12.616Z,48.63
2017-11-29T16:11:40.958Z,31.58
2017-11-29T16:14:08.490Z,31.35
2017-11-29T16:16:36.055Z,41.47
2017-11-29T16:19:03.639Z,38.30
2017-11-29T16:21:31.222Z,42.65
2017-11-29T16:23:59.589Z,42.95
2017-11-29T16:26:27.131Z,38.47
2017-11-29T16:28:54.732Z,45.63
2017-11-29T16:31:23.071Z,33.22
2017-11-29T16:33:50.644Z,48.22
2017-11-29T16:36:18.263Z,38.33
2017-11-29T16:38:45.823Z,36.08
2017-11-29T16:41:13.444Z,33.60
2017-11-29T16:43:41.007Z,62.65
2017-11-29T16:46:08.574Z,51.15
2017-11-29T16:48:36.190Z,44.90
2017-11-29T16:51:03.788Z,52.22
2017-11-29T16:53:31.386Z,49.50
2017-11-29T16:55:59.720Z,60.65
2017-11-29T16:58:27.301Z,61.95
2017-11-29T17:00:54.887Z,43.40
2017-11-29T17:03:22.492Z,44.88
2017-11-29T17:05:50.099Z,52.08
2017-11-29T17:08:17.682Z,48.00
2017-11-29T17:10:46.032Z,47.08
2017-11-29T17:13:13.651Z,49.53
2017-11-29T17:15:41.232Z,49.70
2017-11-29T17:18:08.824Z,55.22
2017-11-29T17:20:37.184Z,51.35
2017-11-29T17:23:04.784Z,47.33
2017-11-29T17:25:33.126Z,52.42
2017-11-29T17:28:00.716Z,61.03
2017-11-29T17:30:29.079Z,49.50
2017-11-29T17:32:56.676Z,45.03
2017-11-29T17:35:24.266Z,50.83
2017-11-29T17:37:51.866Z,58.13
2017-11-29T17:40:19.447Z,58.42
2017-11-29T17:42:47.827Z,57.45
2017-11-29T17:45:16.190Z,50.25
2017-11-29T17:47:43.774Z,57.80
2017-11-29T17:50:12.122Z,59.08
2017-11-29T17:52:39.679Z,45.80
2017-11-29T17:55:07.242Z,41.58
2017-11-29T17:57:34.802Z,47.55
2017-11-29T18:00:02.361Z,48.30
2017-11-29T18:02:29.917Z,61.33
2017-11-29T18:04:57.495Z,56.53
2017-11-29T18:07:25.045Z,47.00
2017-11-29T18:09:52.626Z,49.30
2017-11-29T18:12:20.163Z,54.50
2017-11-29T18:14:47.699Z,45.05
2017-11-29T18:17:15.257Z,45.90
2017-11-29T18:19:42.793Z,41.92
2017-11-29T18:22:10.373Z,49.15
2017-11-29T18:24:37.935Z,52.80
2017-11-29T18:27:06.263Z,52.58
2017-11-29T18:29:33.828Z,47.75
2017-11-29T18:32:01.390Z,46.70
2017-11-29T18:34:28.976Z,41.53
2017-11-29T18:36:57.309Z,52.35
2017-11-29T18:39:24.878Z,61.22
2017-11-29T18:41:52.452Z,56.75
2017-11-29T18:44:19.987Z,52.25
2017-11-29T18:46:47.556Z,45.25
2017-11-29T18:49:15.121Z,49.33
2017-11-29T18:51:42.678Z,67.20
2017-11-29T18:54:10.241Z,39.13
2017-11-29T18:56:37.802Z,58.63
2017-11-29T18:59:05.378Z,67.82
2017-11-29T19:01:32.910Z,76.62
2017-11-29T19:04:00.488Z,95.57
2017-11-29T19:06:28.027Z,54.60
2017-11-29T19:08:55.587Z,57.95
2017-11-29T19:11:23.144Z,63.35
2017-11-29T19:13:51.465Z,116.25
2017-11-29T19:16:19.041Z,111.10
2017-11-29T19:18:46.598Z,61.88
2017-11-29T19:21:15.169Z,52.38
2017-11-29T19:23:42.707Z,64.22
2017-11-29T19:26:10.284Z,51.80
2017-11-29T19:28:37.845Z,58.30
2017-11-29T19:31:05.390Z,60.38
2017-11-29T19:33:32.964Z,59.83
2017-11-29T19:36:00.503Z,65.35
2017-11-29T19:38:28.078Z,68.85
2017-11-29T19:40:55.634Z,69.80
2017-11-29T19:43:23.185Z,66.32
2017-11-29T19:45:51.517Z,55.12
2017-11-29T19:48:19.075Z,69.90
2017-11-29T19:50:46.635Z,73.82
2017-11-29T19:53:14.189Z,55.67
2017-11-29T19:55:41.777Z,58.38
2017-11-29T19:58:09.355Z,61.35
2017-11-29T20:00:37.680Z,59.08
2017-11-29T20:03:05.234Z,58.55
2017-11-29T20:05:32.785Z,53.75
2017-11-29T20:08:00.337Z,47.47
2017-11-29T20:10:28.655Z,56.65
2017-11-29T20:12:56.240Z,66.35
2017-11-29T20:15:23.780Z,60.17
2017-11-29T20:17:51.345Z,71.55
2017-11-29T20:20:18.902Z,56.25
2017-11-29T20:22:46.443Z,67.35
2017-11-29T20:25:14.011Z,59.33
2017-11-29T20:27:41.546Z,67.00
2017-11-29T20:30:09.888Z,56.37
2017-11-29T20:32:37.439Z,62.47
2017-11-29T20:35:04.971Z,61.25
2017-11-29T20:37:32.534Z,63.38
2017-11-29T20:40:00.085Z,53.03
2017-11-29T20:42:27.643Z,59.70
2017-11-29T20:44:55.190Z,58.75
2017-11-29T20:47:22.792Z,64.00
2017-11-29T20:49:50.336Z,52.80
2017-11-29T20:52:19.439Z,62.22
2017-11-29T20:54:46.995Z,50.60
2017-11-29T20:57:14.570Z,65.35
2017-11-29T20:59:42.121Z,55.90
2017-11-29T21:02:09.663Z,56.03
2017-11-29T21:04:37.990Z,81.32
2017-11-29T21:07:05.520Z,60.30
2017-11-29T21:09:33.081Z,79.50
2017-11-29T21:12:00.686Z,69.25
2017-11-29T21:14:28.293Z,74.20
2017-11-29T21:16:56.625Z,70.87
2017-11-29T21:19:24.159Z,57.22
2017-11-29T21:21:51.737Z,61.13
2017-11-29T21:24:19.271Z,61.85
2017-11-29T21:26:46.828Z,63.72
2017-11-29T21:29:14.390Z,61.90
2017-11-29T21:31:41.932Z,62.15
2017-11-29T21:34:10.564Z,68.62
2017-11-29T21:36:38.150Z,73.90
2017-11-29T21:39:05.734Z,71.00
2017-11-29T21:41:33.290Z,58.70
2017-11-29T21:44:00.827Z,69.70
2017-11-29T21:46:28.407Z,74.05
2017-11-29T21:48:55.960Z,70.05
2017-11-29T21:51:23.514Z,66.28
2017-11-29T21:53:51.052Z,62.83
2017-11-29T21:56:18.615Z,60.95
2017-11-29T21:58:46.151Z,68.80
2017-11-29T22:01:13.748Z,70.07
2017-11-29T22:03:41.309Z,63.63
2017-11-29T22:06:08.856Z,79.05
2017-11-29T22:08:36.411Z,74.90
2017-11-29T22:11:03.969Z,74.15
2017-11-29T22:13:31.544Z,64.25
2017-11-29T22:15:59.079Z,68.57
2017-11-29T22:18:26.654Z,71.53
2017-11-29T22:20:54.209Z,69.50
2017-11-29T22:23:21.771Z,84.43
2017-11-29T22:25:50.081Z,76.07
2017-11-29T22:28:17.654Z,85.53
2017-11-29T22:30:45.203Z,64.93
2017-11-29T22:33:12.743Z,69.05
2017-11-29T22:35:40.304Z,69.37
2017-11-29T22:38:07.861Z,87.30
2017-11-29T22:40:35.415Z,66.30
2017-11-29T22:43:03.741Z,66.93
2017-11-29T22:45:31.298Z,64.10
2017-11-29T22:47:58.846Z,83.20
2017-11-29T22:50:26.416Z,67.15
2017-11-29T22:52:53.972Z,67.45
2017-11-29T22:55:21.543Z,65.65
2017-11-29T22:57:49.093Z,63.78
2017-11-29T23:00:27.620Z,65.57
2017-11-29T23:02:55.158Z,63.08
2017-11-29T23:05:22.736Z,56.90
2017-11-29T23:07:50.285Z,59.20
2017-11-29T23:10:17.814Z,63.17
2017-11-29T23:12:46.140Z,62.95
2017-11-29T23:15:13.695Z,66.68
2017-11-29T23:17:41.260Z,61.95
2017-11-29T23:20:08.819Z,66.60
2017-11-29T23:22:36.382Z,62.55
2017-11-29T23:25:03.951Z,57.25
2017-11-29T23:27:31.508Z,60.70
2017-11-29T23:29:59.103Z,61.72
2017-11-29T23:32:26.671Z,66.10
2017-11-29T23:34:54.252Z,64.43
2017-11-29T23:37:22.578Z,57.55
2017-11-29T23:39:50.150Z,71.20
2017-11-29T23:42:17.698Z,59.80
2017-11-29T23:44:45.240Z,68.95
2017-11-29T23:47:12.793Z,67.95
2017-11-29T23:49:40.355Z,57.30
2017-11-29T23:52:07.943Z,62.85
2017-11-29T23:54:35.474Z,58.87
2017-11-29T23:57:03.782Z,54.38
2017-11-29T23:59:31.344Z,70.78
